createdAt,value
2022-11-18T02:01:38.599Z,97421.94
2022-11-18T02:02:41.819Z,97432.50
2022-11-18T02:03:46.052Z,97427.88
2022-11-18T02:04:49.851Z,97419.66
2022-11-18T02:05:52.507Z,97421.19
2022-11-18T02:06:55.507Z,97425.47
2022-11-18T02:07:58.332Z,97427.50
2022-11-18T02:09:01.537Z,97430.03
2022-11-18T02:10:06.345Z,97432.94
2022-11-18T02:11:33.712Z,97438.94
2022-11-18T02:12:37.326Z,97439.75
2022-11-18T02:13:39.684Z,97437.03
2022-11-18T02:14:46.123Z,97437.34
2022-11-18T02:16:10.061Z,97445.41
2022-11-18T02:17:33.944Z,97448.69
2022-11-18T02:18:54.311Z,97440.59
2022-11-18T02:20:17.983Z,97434.22
2022-11-18T02:21:55.739Z,97438.22
2022-11-18T02:23:30.053Z,97436.84
2022-11-18T02:24:44.235Z,97445.31
2022-11-18T02:26:17.479Z,97451.50
2022-11-18T02:27:57.062Z,97448.69
2022-11-18T02:29:15.569Z,97459.78
2022-11-18T02:30:18.947Z,97461.59
2022-11-18T02:31:30.654Z,97461.16
2022-11-18T02:32:39.523Z,97467.44
2022-11-18T02:34:12.531Z,97475.75
2022-11-18T02:35:42.717Z,97469.16
2022-11-18T02:37:25.208Z,97479.00
2022-11-18T02:38:32.727Z,97490.72
2022-11-18T02:40:00.126Z,97492.94
2022-11-18T02:41:07.763Z,97496.69
2022-11-18T02:42:12.686Z,97503.22
2022-11-18T02:43:20.242Z,97504.06
2022-11-18T02:44:26.011Z,97510.63
2022-11-18T02:45:30.757Z,97501.88
2022-11-18T02:46:37.193Z,97511.91
2022-11-18T02:47:42.169Z,97508.53
2022-11-18T02:48:48.478Z,97516.75
2022-11-18T02:49:56.664Z,97526.72
2022-11-18T02:51:01.780Z,97529.41
2022-11-18T02:52:06.129Z,97534.38
2022-11-18T02:53:12.790Z,97535.09
2022-11-18T02:54:17.143Z,97545.66
2022-11-18T02:55:20.215Z,97543.06
2022-11-18T02:56:25.552Z,97548.91
2022-11-18T02:57:31.012Z,97543.28
2022-11-18T02:58:33.225Z,97552.81
2022-11-18T02:59:35.516Z,97551.13
2022-11-18T03:00:37.783Z,97556.25
2022-11-18T03:01:40.184Z,97554.91
2022-11-18T03:02:45.769Z,97547.31
2022-11-18T03:03:48.123Z,97557.97
2022-11-18T03:04:55.355Z,97555.13
2022-11-18T03:06:16.970Z,97559.50
2022-11-18T03:07:26.239Z,97562.41
2022-11-18T03:08:35.235Z,97561.84
2022-11-18T03:09:41.535Z,97566.31
2022-11-18T03:10:52.835Z,97562.69
2022-11-18T03:12:19.724Z,97577.47
2022-11-18T03:13:32.032Z,97583.28
2022-11-18T03:15:04.241Z,97581.66
2022-11-18T03:16:13.105Z,97577.59
2022-11-18T03:17:21.053Z,97580.13
2022-11-18T03:18:39.047Z,97584.75
2022-11-18T03:20:02.705Z,97579.19
2022-11-18T03:21:20.812Z,97577.66
2022-11-18T03:22:37.547Z,97583.38
2022-11-18T03:24:02.108Z,97589.22
2022-11-18T03:25:27.882Z,97596.22
2022-11-18T03:26:33.554Z,97600.94
2022-11-18T03:27:39.312Z,97607.91
2022-11-18T03:28:50.655Z,97597.78
2022-11-18T03:30:01.576Z,97605.69
2022-11-18T03:31:10.114Z,97602.56
2022-11-18T03:32:18.911Z,97600.69
2022-11-18T03:33:28.472Z,97592.03
2022-11-18T03:34:37.783Z,97603.06
2022-11-18T03:35:45.461Z,97598.81
2022-11-18T03:36:53.768Z,97598.28
2022-11-18T03:38:04.899Z,97601.72
2022-11-18T03:39:11.098Z,97597.88
2022-11-18T03:40:21.373Z,97600.47
2022-11-18T03:41:25.185Z,97598.81
2022-11-18T03:42:51.686Z,97600.75
2022-11-18T03:43:58.176Z,97595.56
2022-11-18T03:45:10.793Z,97593.03
2022-11-18T03:46:22.866Z,97589.47
2022-11-18T03:47:39.318Z,97598.13
2022-11-18T03:48:47.386Z,97594.09
2022-11-18T03:50:21.921Z,97595.09
2022-11-18T03:51:31.480Z,97608.97
2022-11-18T03:52:36.606Z,97615.56
2022-11-18T03:53:45.377Z,97615.50
2022-11-18T03:54:50.313Z,97626.59
2022-11-18T03:55:58.904Z,97622.47
2022-11-18T03:57:07.097Z,97623.56
2022-11-18T03:58:34.475Z,97631.56
2022-11-18T03:59:42.959Z,97629.53
2022-11-18T04:00:49.785Z,97632.31
2022-11-18T04:02:11.403Z,97629.38
2022-11-18T04:03:14.437Z,97635.28
2022-11-18T04:04:16.778Z,97638.19
2022-11-18T04:05:19.579Z,97645.84
2022-11-18T04:06:30.956Z,97635.03
2022-11-18T04:07:38.635Z,97641.94
2022-11-18T04:08:43.661Z,97645.50
2022-11-18T04:09:54.542Z,97641.41
2022-11-18T04:11:32.228Z,97641.41
2022-11-18T04:12:40.234Z,97643.78
2022-11-18T04:13:42.610Z,97644.94
2022-11-18T04:14:47.957Z,97643.16
2022-11-18T04:15:50.475Z,97643.06
2022-11-18T04:16:55.674Z,97646.81
2022-11-18T04:17:58.768Z,97639.41
2022-11-18T04:19:06.013Z,97640.91
2022-11-18T04:20:20.605Z,97646.78
2022-11-18T04:21:22.783Z,97638.03
2022-11-18T04:22:25.041Z,97650.53
2022-11-18T04:23:27.262Z,97653.19
2022-11-18T04:24:29.556Z,97647.56
2022-11-18T04:25:31.948Z,97649.44
2022-11-18T04:26:34.134Z,97652.41
2022-11-18T04:27:36.498Z,97656.53
2022-11-18T04:28:38.684Z,97659.69
2022-11-18T04:29:40.953Z,97660.13
2022-11-18T04:30:43.202Z,97658.88
2022-11-18T04:31:45.508Z,97664.19
2022-11-18T04:32:47.718Z,97663.63
2022-11-18T04:33:49.936Z,97666.13
2022-11-18T04:34:52.088Z,97661.13
2022-11-18T04:35:54.302Z,97664.63
2022-11-18T04:36:57.336Z,97662.22
2022-11-18T04:37:59.569Z,97666.38
2022-11-18T04:39:01.797Z,97670.75
2022-11-18T04:40:05.014Z,97665.50
2022-11-18T04:41:07.140Z,97670.38
2022-11-18T04:42:09.373Z,97664.88
2022-11-18T04:43:11.637Z,97667.50
2022-11-18T04:44:13.908Z,97661.00
2022-11-18T04:45:16.137Z,97666.63
2022-11-18T04:46:18.352Z,97671.09
2022-11-18T04:47:20.557Z,97664.91
2022-11-18T04:48:22.773Z,97674.09
2022-11-18T04:49:26.721Z,97677.19
2022-11-18T04:50:28.915Z,97672.59
2022-11-18T04:51:31.090Z,97667.94
2022-11-18T04:52:33.292Z,97660.75
2022-11-18T04:53:35.469Z,97671.69
2022-11-18T04:54:37.720Z,97670.09
2022-11-18T04:55:39.926Z,97670.84
2022-11-18T04:56:47.522Z,97670.00
2022-11-18T04:57:51.583Z,97669.47
2022-11-18T04:58:53.855Z,97666.34
2022-11-18T04:59:56.004Z,97672.13
2022-11-18T05:00:58.212Z,97680.53
2022-11-18T05:02:03.796Z,97680.75
2022-11-18T05:03:06.060Z,97680.31
2022-11-18T05:04:08.448Z,97681.22
2022-11-18T05:05:10.633Z,97682.25
2022-11-18T05:06:12.830Z,97680.94
2022-11-18T05:07:15.762Z,97686.84
2022-11-18T05:08:18.089Z,97682.34
2022-11-18T05:09:20.757Z,97678.50
2022-11-18T05:10:23.266Z,97687.66
2022-11-18T05:11:45.177Z,97691.00
2022-11-18T05:12:50.070Z,97687.75
2022-11-18T05:13:52.639Z,97688.53
2022-11-18T05:14:54.879Z,97696.19
2022-11-18T05:16:01.276Z,97689.56
2022-11-18T05:17:05.045Z,97691.13
2022-11-18T05:18:10.834Z,97698.41
2022-11-18T05:19:13.200Z,97695.53
2022-11-18T05:20:15.990Z,97702.94
2022-11-18T05:21:18.170Z,97703.47
2022-11-18T05:22:20.547Z,97700.22
2022-11-18T05:23:22.740Z,97708.16
2022-11-18T05:24:25.158Z,97703.91
2022-11-18T05:25:27.323Z,97710.19
2022-11-18T05:26:29.600Z,97703.28
2022-11-18T05:27:31.787Z,97714.38
2022-11-18T05:28:34.260Z,97716.59
2022-11-18T05:29:36.523Z,97705.00
2022-11-18T05:30:38.675Z,97714.47
2022-11-18T05:31:40.896Z,97712.97
2022-11-18T05:32:43.091Z,97712.25
2022-11-18T05:33:45.867Z,97719.09
2022-11-18T05:34:48.068Z,97721.06
2022-11-18T05:35:54.952Z,97723.31
2022-11-18T05:36:57.534Z,97723.16
2022-11-18T05:38:01.372Z,97720.31
2022-11-18T05:39:03.710Z,97727.69
2022-11-18T05:40:06.608Z,97718.88
2022-11-18T05:41:09.682Z,97732.72
2022-11-18T05:42:31.248Z,97735.47
2022-11-18T05:43:33.725Z,97727.84
2022-11-18T05:44:35.900Z,97726.88
2022-11-18T05:45:39.289Z,97736.91
2022-11-18T05:46:41.567Z,97734.66
2022-11-18T05:48:03.035Z,97743.31
2022-11-18T05:49:05.512Z,97740.44
2022-11-18T05:50:08.157Z,97743.22
2022-11-18T05:51:10.332Z,97746.09
2022-11-18T05:52:12.518Z,97741.69
2022-11-18T05:53:15.571Z,97749.16
2022-11-18T05:54:19.894Z,97745.97
2022-11-18T05:55:27.364Z,97751.16
2022-11-18T05:56:35.696Z,97756.78
2022-11-18T05:57:37.927Z,97752.81
2022-11-18T05:58:40.320Z,97753.34
2022-11-18T05:59:42.556Z,97756.22
2022-11-18T06:00:47.320Z,97750.00
2022-11-18T06:02:05.160Z,97760.44
2022-11-18T06:03:17.415Z,97767.22
2022-11-18T06:04:43.737Z,97765.75
2022-11-18T06:05:45.953Z,97769.22
2022-11-18T06:06:52.249Z,97770.50
2022-11-18T06:07:56.944Z,97765.19
2022-11-18T06:09:07.086Z,97772.28
2022-11-18T06:10:17.844Z,97766.13
2022-11-18T06:11:21.290Z,97767.94
2022-11-18T06:12:27.518Z,97765.16
2022-11-18T06:13:39.707Z,97775.88
2022-11-18T06:14:51.852Z,97769.06
2022-11-18T06:15:54.574Z,97775.19
2022-11-18T06:17:00.814Z,97780.78
2022-11-18T06:18:17.316Z,97781.69
2022-11-18T06:19:20.030Z,97784.16
2022-11-18T06:20:22.868Z,97772.94
2022-11-18T06:21:25.411Z,97785.53
2022-11-18T06:22:28.175Z,97786.97
2022-11-18T06:23:35.922Z,97775.63
2022-11-18T06:24:38.720Z,97781.56
2022-11-18T06:25:41.929Z,97784.91
2022-11-18T06:26:45.522Z,97791.91
2022-11-18T06:27:48.338Z,97798.06
2022-11-18T06:28:50.612Z,97797.06
2022-11-18T06:29:52.760Z,97794.00
2022-11-18T06:30:54.995Z,97786.09
2022-11-18T06:31:57.523Z,97788.38
2022-11-18T06:32:59.727Z,97792.22
2022-11-18T06:34:01.992Z,97802.56
2022-11-18T06:35:04.472Z,97796.97
2022-11-18T06:36:07.004Z,97794.09
2022-11-18T06:37:17.367Z,97808.38
2022-11-18T06:38:19.700Z,97813.78
2022-11-18T06:39:22.145Z,97808.59
2022-11-18T06:40:24.344Z,97811.00
2022-11-18T06:41:26.589Z,97806.16
2022-11-18T06:42:47.222Z,97824.78
2022-11-18T06:43:49.484Z,97818.47
2022-11-18T06:44:51.753Z,97826.13
2022-11-18T06:46:17.204Z,97827.28
2022-11-18T06:47:19.409Z,97828.31
2022-11-18T06:48:21.612Z,97840.75
2022-11-18T06:49:27.738Z,97839.38
2022-11-18T06:50:30.962Z,97840.47
2022-11-18T06:51:33.386Z,97844.13
2022-11-18T06:52:35.659Z,97844.94
2022-11-18T06:53:37.883Z,97847.75
2022-11-18T06:54:40.125Z,97846.44
2022-11-18T06:55:42.444Z,97851.66
2022-11-18T06:56:44.763Z,97860.13
2022-11-18T06:57:46.982Z,97854.38
2022-11-18T06:58:57.807Z,97863.63
2022-11-18T07:00:02.214Z,97860.59
2022-11-18T07:01:25.487Z,97859.97
2022-11-18T07:02:27.757Z,97863.69
2022-11-18T07:03:30.048Z,97861.25
2022-11-18T07:04:33.666Z,97853.91
2022-11-18T07:05:35.875Z,97863.41
2022-11-18T07:06:38.271Z,97861.13
2022-11-18T07:07:42.366Z,97871.09
2022-11-18T07:08:45.512Z,97868.88
2022-11-18T07:09:47.762Z,97857.88
2022-11-18T07:10:53.901Z,97867.22
2022-11-18T07:11:56.755Z,97863.88
2022-11-18T07:12:59.028Z,97872.72
2022-11-18T07:14:01.428Z,97865.97
2022-11-18T07:15:03.971Z,97875.63
2022-11-18T07:16:08.859Z,97872.03
2022-11-18T07:17:12.940Z,97877.41
2022-11-18T07:18:15.198Z,97880.78
2022-11-18T07:19:17.714Z,97883.09
2022-11-18T07:20:20.303Z,97887.19
2022-11-18T07:21:27.314Z,97889.03
2022-11-18T07:22:29.482Z,97895.63
2022-11-18T07:23:33.375Z,97889.53
2022-11-18T07:24:35.674Z,97895.22
2022-11-18T07:25:42.560Z,97895.78
2022-11-18T07:26:47.365Z,97883.94
2022-11-18T07:27:49.609Z,97887.75
2022-11-18T07:28:52.184Z,97888.25
2022-11-18T07:29:54.433Z,97896.88
2022-11-18T07:31:08.737Z,97897.81
2022-11-18T07:32:10.968Z,97900.78
2022-11-18T07:33:13.169Z,97895.41
2022-11-18T07:34:15.478Z,97909.56
2022-11-18T07:35:18.830Z,97909.31
2022-11-18T07:36:23.403Z,97910.69
2022-11-18T07:37:26.616Z,97904.09
2022-11-18T07:38:29.281Z,97913.97
2022-11-18T07:39:31.874Z,97903.41
2022-11-18T07:40:34.018Z,97917.72
2022-11-18T07:41:36.461Z,97918.66
2022-11-18T07:42:44.260Z,97922.38
2022-11-18T07:44:01.083Z,97927.94
2022-11-18T07:45:04.271Z,97924.56
2022-11-18T07:46:19.808Z,97920.44
2022-11-18T07:47:22.048Z,97926.09
2022-11-18T07:48:24.308Z,97928.44
2022-11-18T07:49:26.566Z,97925.91
2022-11-18T07:50:29.052Z,97924.59
2022-11-18T07:51:34.802Z,97926.59
2022-11-18T07:52:37.061Z,97931.69
2022-11-18T07:53:39.542Z,97938.75
2022-11-18T07:54:41.711Z,97931.72
2022-11-18T07:55:43.863Z,97930.97
2022-11-18T07:56:46.146Z,97940.34
2022-11-18T07:57:48.315Z,97944.84
2022-11-18T07:58:55.312Z,97945.31
2022-11-18T07:59:57.564Z,97943.31
2022-11-18T08:01:07.264Z,97942.97
2022-11-18T08:02:12.743Z,97942.50
2022-11-18T08:03:15.062Z,97946.97
2022-11-18T08:04:18.009Z,97950.50
2022-11-18T08:05:20.336Z,97954.69
2022-11-18T08:06:22.766Z,97954.22
2022-11-18T08:07:25.029Z,97954.34
2022-11-18T08:08:27.424Z,97953.59
2022-11-18T08:09:29.683Z,97948.75
2022-11-18T08:10:31.926Z,97960.03
2022-11-18T08:11:34.218Z,97954.50
2022-11-18T08:12:36.459Z,97961.66
2022-11-18T08:13:39.236Z,97954.78
2022-11-18T08:14:41.526Z,97959.66
2022-11-18T08:15:43.811Z,97952.81
2022-11-18T08:16:46.003Z,97956.28
2022-11-18T08:17:48.224Z,97957.59
2022-11-18T08:18:51.016Z,97964.63
2022-11-18T08:19:53.204Z,97963.94
2022-11-18T08:20:55.472Z,97972.22
2022-11-18T08:21:57.702Z,97970.94
2022-11-18T08:22:59.932Z,97962.19
2022-11-18T08:24:02.094Z,97969.09
2022-11-18T08:25:04.573Z,97966.88
2022-11-18T08:26:13.842Z,97969.56
2022-11-18T08:27:16.038Z,97977.09
2022-11-18T08:28:18.388Z,97963.38
2022-11-18T08:29:25.090Z,97980.06
2022-11-18T08:30:28.016Z,97976.97
2022-11-18T08:31:31.083Z,97974.72
2022-11-18T08:32:33.331Z,97975.03
2022-11-18T08:33:35.547Z,97975.13
2022-11-18T08:34:37.850Z,97986.28
2022-11-18T08:35:40.031Z,97988.75
2022-11-18T08:36:42.264Z,97976.09
2022-11-18T08:37:44.453Z,97980.53
2022-11-18T08:38:46.768Z,97977.19
2022-11-18T08:39:49.015Z,97973.06
2022-11-18T08:40:51.392Z,97985.31
2022-11-18T08:41:53.812Z,97982.84
2022-11-18T08:42:56.117Z,97981.91
2022-11-18T08:43:58.447Z,97982.88
2022-11-18T08:45:00.668Z,97977.09
2022-11-18T08:46:02.932Z,97974.75
2022-11-18T08:47:05.207Z,97981.97
2022-11-18T08:48:08.126Z,97978.13
2022-11-18T08:49:10.329Z,97987.50
2022-11-18T08:50:12.822Z,97978.97
2022-11-18T08:51:15.972Z,97984.91
2022-11-18T08:52:18.590Z,97984.41
2022-11-18T08:53:20.964Z,97984.00
2022-11-18T08:54:23.127Z,97988.34
2022-11-18T08:55:25.369Z,97986.63
2022-11-18T08:56:27.555Z,97985.91
2022-11-18T08:57:29.802Z,97979.97
2022-11-18T08:58:32.083Z,97993.56
2022-11-18T08:59:35.098Z,97993.56
2022-11-18T09:00:38.768Z,97987.78
2022-11-18T09:01:43.466Z,97982.38
2022-11-18T09:02:46.360Z,97987.84
2022-11-18T09:03:49.401Z,97996.34
2022-11-18T09:04:52.452Z,97993.72
2022-11-18T09:05:54.775Z,97993.34
2022-11-18T09:06:57.039Z,97995.63
2022-11-18T09:07:59.319Z,97998.25
2022-11-18T09:09:06.176Z,97994.06
2022-11-18T09:10:09.173Z,97995.00
2022-11-18T09:11:14.618Z,98002.44
2022-11-18T09:12:17.559Z,98002.09
2022-11-18T09:13:44.775Z,97992.53
2022-11-18T09:16:07.027Z,97996.13
2022-11-18T09:17:09.769Z,97999.63
2022-11-18T09:18:12.545Z,97999.59
2022-11-18T09:20:38.428Z,97997.84
2022-11-18T09:21:41.098Z,97998.53
2022-11-18T09:22:43.418Z,98001.41
2022-11-18T09:23:46.149Z,97992.63
2022-11-18T09:24:48.411Z,97997.28
2022-11-18T09:26:16.673Z,98002.09
2022-11-18T09:27:18.907Z,98001.97
2022-11-18T09:28:21.074Z,98003.94
2022-11-18T09:29:26.068Z,98000.41
2022-11-18T09:30:28.280Z,98011.34
2022-11-18T09:31:30.807Z,98004.16
2022-11-18T09:32:33.856Z,98007.44
2022-11-18T09:33:37.672Z,98004.97
2022-11-18T09:34:39.810Z,98011.00
2022-11-18T09:35:43.053Z,98015.84
2022-11-18T09:36:45.777Z,98008.06
2022-11-18T09:37:48.118Z,98009.66
2022-11-18T09:38:53.172Z,98007.44
2022-11-18T09:39:55.770Z,98008.56
2022-11-18T09:41:12.312Z,98006.13
2022-11-18T09:42:38.174Z,98005.00
2022-11-18T09:44:11.163Z,98011.44
2022-11-18T09:45:28.429Z,98012.13
2022-11-18T09:47:04.584Z,98026.50
2022-11-18T09:48:17.856Z,98020.91
2022-11-18T09:49:42.345Z,98025.25
2022-11-18T09:50:51.722Z,98025.72
2022-11-18T09:51:54.918Z,98034.25
2022-11-18T09:53:15.260Z,98029.28
2022-11-18T09:54:31.662Z,98023.56
2022-11-18T09:55:38.596Z,98032.56
2022-11-18T09:56:41.644Z,98038.28
2022-11-18T09:57:57.524Z,98039.19
2022-11-18T09:58:59.799Z,98034.03
2022-11-18T10:00:02.378Z,98042.06
2022-11-18T10:01:18.225Z,98041.00
2022-11-18T10:02:29.056Z,98038.06
2022-11-18T10:03:34.479Z,98044.81
2022-11-18T10:04:37.473Z,98044.94
2022-11-18T10:05:57.123Z,98041.94
2022-11-18T10:07:00.426Z,98033.31
2022-11-18T10:08:12.244Z,98042.41
2022-11-18T10:09:23.286Z,98044.19
2022-11-18T10:10:50.668Z,98042.09
2022-11-18T10:12:38.300Z,98046.38
2022-11-18T10:14:12.441Z,98053.59
2022-11-18T10:15:39.553Z,98048.94
2022-11-18T10:17:02.269Z,98053.63
2022-11-18T10:18:44.907Z,98049.75
2022-11-18T10:19:56.548Z,98056.25
2022-11-18T10:21:20.262Z,98054.47
2022-11-18T10:22:46.986Z,98047.91
2022-11-18T10:23:59.175Z,98054.91
2022-11-18T10:25:01.454Z,98053.63
2022-11-18T10:26:03.761Z,98047.09
2022-11-18T10:27:12.490Z,98048.03
2022-11-18T10:28:25.309Z,98038.66
2022-11-18T10:29:27.559Z,98050.00
2022-11-18T10:30:30.919Z,98050.38
2022-11-18T10:31:37.024Z,98055.63
2022-11-18T10:33:16.742Z,98052.25
2022-11-18T10:34:20.477Z,98044.88
2022-11-18T10:35:29.605Z,98052.47
2022-11-18T10:36:37.871Z,98057.59
2022-11-18T10:38:06.939Z,98053.75
2022-11-18T10:39:16.276Z,98055.16
2022-11-18T10:40:26.597Z,98056.19
2022-11-18T10:41:28.768Z,98064.22
2022-11-18T10:42:47.901Z,98062.09
2022-11-18T10:43:55.583Z,98059.56
2022-11-18T10:45:17.001Z,98060.78
2022-11-18T10:46:28.566Z,98063.31
2022-11-18T10:47:32.806Z,98062.19
2022-11-18T10:48:35.316Z,98060.53
2022-11-18T10:49:39.018Z,98067.53
2022-11-18T10:50:55.095Z,98072.38
2022-11-18T10:52:06.491Z,98074.81
2022-11-18T10:53:32.784Z,98060.78
2022-11-18T10:54:35.037Z,98060.97
2022-11-18T10:55:37.585Z,98065.59
2022-11-18T10:57:21.592Z,98068.41
2022-11-18T10:58:24.035Z,98064.81
2022-11-18T10:59:36.151Z,98069.31
2022-11-18T11:00:41.261Z,98077.25
2022-11-18T11:01:43.814Z,98063.88
2022-11-18T11:02:46.608Z,98065.59
2022-11-18T11:03:59.802Z,98057.78
2022-11-18T11:05:15.185Z,98065.66
2022-11-18T11:06:26.315Z,98064.38
2022-11-18T11:07:36.702Z,98065.84
2022-11-18T11:08:54.675Z,98065.66
2022-11-18T11:10:06.971Z,98065.22
2022-11-18T11:11:26.077Z,98066.03
2022-11-18T11:12:32.234Z,98074.84
2022-11-18T11:13:40.458Z,98063.09
2022-11-18T11:14:51.035Z,98075.19
2022-11-18T11:15:56.715Z,98070.31
2022-11-18T11:17:20.982Z,98080.72
2022-11-18T11:18:42.189Z,98079.03
2022-11-18T11:19:52.006Z,98068.97
2022-11-18T11:20:54.227Z,98072.13
2022-11-18T11:21:57.185Z,98074.16
2022-11-18T11:22:59.485Z,98075.81
2022-11-18T11:24:01.667Z,98081.94
2022-11-18T11:25:12.630Z,98071.47
2022-11-18T11:28:18.941Z,98087.00
2022-11-18T11:29:32.024Z,98085.44
2022-11-18T11:30:48.504Z,98084.03
2022-11-18T11:32:15.252Z,98106.63
2022-11-18T11:33:30.890Z,98100.78
2022-11-18T11:35:17.065Z,98104.84
2022-11-18T11:36:51.747Z,98113.00
2022-11-18T11:38:06.323Z,98108.63
2022-11-18T11:39:39.194Z,98104.09
2022-11-18T11:40:52.541Z,98109.66
2022-11-18T11:42:06.539Z,98112.41
2022-11-18T11:44:02.789Z,98116.75
2022-11-18T11:45:33.363Z,98105.59
2022-11-18T11:47:18.980Z,98106.75
2022-11-18T11:49:02.147Z,98123.66
2022-11-18T11:50:19.008Z,98109.59
2022-11-18T11:51:44.098Z,98101.06
2022-11-18T11:52:49.163Z,98110.59
2022-11-18T11:54:12.986Z,98109.75
2022-11-18T11:55:32.105Z,98118.25
2022-11-18T11:56:59.912Z,98119.44
2022-11-18T11:58:23.778Z,98122.63
2022-11-18T11:59:52.306Z,98115.88
2022-11-18T12:01:10.706Z,98118.59
2022-11-18T12:02:51.091Z,98115.59
2022-11-18T12:04:05.774Z,98111.41
2022-11-18T12:05:20.782Z,98114.09
2022-11-18T12:06:23.018Z,98121.72
2022-11-18T12:07:29.517Z,98120.28
2022-11-18T12:08:33.005Z,98118.69
2022-11-18T12:09:44.038Z,98119.69
2022-11-18T12:11:00.240Z,98122.56
2022-11-18T12:12:34.325Z,98112.50
2022-11-18T12:13:53.708Z,98120.72
2022-11-18T12:15:02.959Z,98113.53
2022-11-18T12:16:45.571Z,98123.28
2022-11-18T12:18:16.334Z,98120.75
2022-11-18T12:19:21.303Z,98125.56
2022-11-18T12:20:48.027Z,98116.38
2022-11-18T12:21:50.413Z,98115.06
2022-11-18T12:23:12.390Z,98118.50
2022-11-18T12:24:17.180Z,98120.41
2022-11-18T12:25:48.238Z,98121.72
2022-11-18T12:26:51.560Z,98128.59
2022-11-18T12:27:59.670Z,98123.19
2022-11-18T12:29:23.925Z,98125.63
2022-11-18T12:30:26.202Z,98125.34
2022-11-18T12:31:33.333Z,98130.69
2022-11-18T12:32:42.827Z,98139.44
2022-11-18T12:33:46.196Z,98138.06
2022-11-18T12:35:01.072Z,98139.75
2022-11-18T12:36:03.534Z,98137.91
2022-11-18T12:37:53.125Z,98130.66
2022-11-18T12:38:56.470Z,98139.25
2022-11-18T12:40:00.503Z,98130.69
2022-11-18T12:41:22.708Z,98138.00
2022-11-18T12:42:57.176Z,98139.78
2022-11-18T12:44:01.026Z,98137.81
2022-11-18T12:45:48.524Z,98137.16
2022-11-18T12:46:52.553Z,98135.00
2022-11-18T12:47:54.759Z,98129.16
2022-11-18T12:48:57.026Z,98129.59
2022-11-18T12:49:59.304Z,98132.66
2022-11-18T12:51:17.635Z,98128.41
2022-11-18T12:52:28.982Z,98133.72
2022-11-18T12:53:40.332Z,98130.88
2022-11-18T12:54:47.637Z,98135.25
2022-11-18T12:55:50.012Z,98134.09
2022-11-18T12:56:57.121Z,98144.16
2022-11-18T12:57:59.356Z,98142.81
2022-11-18T12:59:02.279Z,98144.25
2022-11-18T13:00:23.394Z,98141.03
2022-11-18T13:01:28.724Z,98142.81
2022-11-18T13:02:30.991Z,98139.13
2022-11-18T13:03:34.272Z,98143.28
2022-11-18T13:04:43.048Z,98141.75
2022-11-18T13:05:47.471Z,98149.53
2022-11-18T13:06:52.968Z,98144.72
2022-11-18T13:08:14.513Z,98132.59
2022-11-18T13:09:18.959Z,98140.53
2022-11-18T13:10:24.892Z,98139.41
2022-11-18T13:11:45.211Z,98134.03
2022-11-18T13:12:49.014Z,98136.88
2022-11-18T13:14:11.690Z,98144.44
2022-11-18T13:15:33.702Z,98143.31
2022-11-18T13:16:54.720Z,98148.78
2022-11-18T13:18:10.723Z,98142.03
2022-11-18T13:19:24.869Z,98139.84
2022-11-18T13:20:35.910Z,98136.34
2022-11-18T13:21:57.256Z,98144.13
2022-11-18T13:23:21.189Z,98151.13
2022-11-18T13:24:25.437Z,98149.50
2022-11-18T13:25:28.449Z,98151.69
2022-11-18T13:26:34.793Z,98149.66
2022-11-18T13:27:55.562Z,98142.84
2022-11-18T13:28:57.752Z,98142.22
2022-11-18T13:30:10.269Z,98147.88
2022-11-18T13:31:12.283Z,98145.75
2022-11-18T13:32:27.527Z,98146.63
2022-11-18T13:33:39.118Z,98150.31
2022-11-18T13:35:13.227Z,98144.59
2022-11-18T13:36:25.955Z,98140.50
2022-11-18T13:37:34.140Z,98145.63
2022-11-18T13:38:36.456Z,98148.16
2022-11-18T13:39:46.739Z,98138.41
2022-11-18T13:41:08.378Z,98145.13
2022-11-18T13:42:21.582Z,98142.91
2022-11-18T13:43:26.657Z,98145.53
2022-11-18T13:44:32.623Z,98144.25
2022-11-18T13:45:35.027Z,98139.50
2022-11-18T13:46:39.512Z,98150.53
2022-11-18T13:47:52.094Z,98147.63
2022-11-18T13:48:58.396Z,98151.22
2022-11-18T13:50:22.548Z,98159.97
2022-11-18T13:51:26.357Z,98154.38
2022-11-18T13:52:40.260Z,98152.03
2022-11-18T13:53:43.483Z,98157.66
2022-11-18T13:54:49.442Z,98153.53
2022-11-18T13:55:56.362Z,98162.88
2022-11-18T13:56:58.957Z,98159.09
2022-11-18T13:58:06.818Z,98156.34
2022-11-18T13:59:18.437Z,98161.06
2022-11-18T14:00:26.264Z,98160.19
2022-11-18T14:01:33.717Z,98155.72
2022-11-18T14:02:46.216Z,98156.78
2022-11-18T14:03:50.837Z,98150.91
2022-11-18T14:04:56.343Z,98156.34
2022-11-18T14:05:58.674Z,98147.72
2022-11-18T14:07:36.336Z,98158.16
2022-11-18T14:08:39.963Z,98161.06
2022-11-18T14:09:58.591Z,98159.03
2022-11-18T14:11:01.706Z,98153.88
2022-11-18T14:12:23.282Z,98159.66
2022-11-18T14:13:34.973Z,98162.28
2022-11-18T14:14:39.837Z,98157.78
2022-11-18T14:15:44.127Z,98168.94
2022-11-18T14:16:46.586Z,98154.91
2022-11-18T14:17:55.206Z,98163.50
2022-11-18T14:18:57.493Z,98163.84
2022-11-18T14:20:07.163Z,98162.41
2022-11-18T14:21:12.419Z,98168.13
2022-11-18T14:22:19.171Z,98169.22
2022-11-18T14:23:31.718Z,98175.69
2022-11-18T14:24:34.034Z,98172.25
2022-11-18T14:25:36.803Z,98169.75
2022-11-18T14:26:39.135Z,98173.69
2022-11-18T14:27:44.525Z,98176.31
2022-11-18T14:29:14.797Z,98178.19
2022-11-18T14:30:41.990Z,98173.38
2022-11-18T14:31:44.324Z,98174.78
2022-11-18T14:33:05.838Z,98182.75
2022-11-18T14:34:21.417Z,98188.22
2022-11-18T14:35:23.578Z,98187.47
2022-11-18T14:36:25.809Z,98197.81
2022-11-18T14:37:28.190Z,98196.94
2022-11-18T14:38:57.938Z,98189.25
2022-11-18T14:40:13.488Z,98189.72
2022-11-18T14:41:43.948Z,98192.81
2022-11-18T14:42:46.375Z,98192.63
2022-11-18T14:43:48.685Z,98200.03
2022-11-18T14:44:51.061Z,98197.31
2022-11-18T14:45:57.634Z,98199.94
2022-11-18T14:47:03.036Z,98201.09
2022-11-18T14:48:05.972Z,98204.19
2022-11-18T14:49:17.273Z,98200.78
2022-11-18T14:50:22.790Z,98203.72
2022-11-18T14:51:25.343Z,98206.69
2022-11-18T14:52:30.086Z,98210.25
2022-11-18T14:53:32.421Z,98212.31
2022-11-18T14:54:37.747Z,98211.47
2022-11-18T14:55:40.580Z,98206.97
2022-11-18T14:56:43.876Z,98209.41
2022-11-18T14:57:47.996Z,98211.50
2022-11-18T14:58:50.453Z,98198.81
2022-11-18T14:59:52.648Z,98202.84
2022-11-18T15:00:54.908Z,98209.69
2022-11-18T15:01:58.536Z,98214.66
2022-11-18T15:03:00.933Z,98216.81
2022-11-18T15:04:03.147Z,98203.63
2022-11-18T15:05:05.818Z,98210.47
2022-11-18T15:06:16.020Z,98209.56
2022-11-18T15:07:23.415Z,98208.25
2022-11-18T15:08:26.224Z,98214.41
2022-11-18T15:09:28.724Z,98205.44
2022-11-18T15:10:31.451Z,98209.56
2022-11-18T15:11:34.519Z,98222.22
2022-11-18T15:12:36.712Z,98207.72
2022-11-18T15:13:39.802Z,98208.84
2022-11-18T15:14:44.920Z,98216.09
2022-11-18T15:15:47.245Z,98215.38
2022-11-18T15:16:49.455Z,98210.41
2022-11-18T15:17:54.087Z,98219.22
2022-11-18T15:19:00.446Z,98220.91
2022-11-18T15:20:04.378Z,98222.19
2022-11-18T15:21:06.579Z,98220.38
2022-11-18T15:22:09.519Z,98222.44
2022-11-18T15:23:11.709Z,98233.56
2022-11-18T15:24:14.503Z,98222.47
2022-11-18T15:25:16.716Z,98230.31
2022-11-18T15:26:34.401Z,98229.13
2022-11-18T15:27:37.089Z,98228.31
2022-11-18T15:28:39.297Z,98229.03
2022-11-18T15:29:41.658Z,98230.19
2022-11-18T15:30:43.944Z,98230.16
2022-11-18T15:31:47.852Z,98225.19